Time;durP1;ratioP1;P1;durP2;ratioP2;P2;SDS_P1;SDS_P2;PMS_P1;PMS_P2;Temp;Humidity;BMP_temperature;BMP_pressure;BME280_temperature;BME280_humidity;BME280_pressure;Samples;Min_cycle;Max_cycle;Signal;HPM_P1;HPM_P2
2023/01/27 00:02:16;;;;;;;23.33;22.03;;;19.50;45.20;;;;;;5096474;28;20528;-50
2023/01/27 00:04:45;;;;;;;22.53;21.33;;;19.40;45.80;;;;;;5113340;28;20446;-51
2023/01/27 00:07:11;;;;;;;23.83;22.50;;;19.30;45.20;;;;;;5113218;28;20462;-51
2023/01/27 00:09:40;;;;;;;22.40;21.40;;;19.30;45.30;;;;;;5113095;28;20536;-50
2023/01/27 00:14:56;;;;;;;22.40;21.40;;;19.20;45.30;;;;;;5092925;28;20437;-50
2023/01/27 00:17:22;;;;;;;22.50;21.50;;;19.20;45.40;;;;;;5092706;28;20549;-51
2023/01/27 00:19:51;;;;;;;22.30;21.20;;;19.10;45.40;;;;;;5092617;28;20482;-51
2023/01/27 00:25:02;;;;;;;23.17;22.07;;;19.00;45.50;;;;;;5092901;28;20418;-53
2023/01/27 00:27:28;;;;;;;23.10;22.00;;;19.10;45.60;;;;;;5092638;28;20656;-50
2023/01/27 00:29:56;;;;;;;23.60;22.50;;;19.00;45.60;;;;;;5092401;28;20445;-51
2023/01/27 00:35:09;;;;;;;22.13;21.23;;;18.90;45.60;;;;;;5112870;28;20444;-50
2023/01/27 00:37:36;;;;;;;22.40;21.37;;;18.90;45.70;;;;;;5112795;28;20508;-52
2023/01/27 00:40:03;;;;;;;22.80;21.50;;;18.90;45.70;;;;;;5112366;28;20824;-52
2023/01/27 00:42:30;;;;;;;22.73;21.53;;;18.90;45.80;;;;;;5108672;28;20441;-52
2023/01/27 00:47:41;;;;;;;22.40;21.40;;;18.80;45.80;;;;;;5092497;28;20479;-51
2023/01/27 00:50:10;;;;;;;22.50;21.57;;;18.80;45.90;;;;;;5091899;28;21016;-50
2023/01/27 00:52:38;;;;;;;22.90;21.80;;;18.80;45.90;;;;;;5096676;28;20969;-50
2023/01/27 00:55:06;;;;;;;22.17;20.97;;;18.70;45.80;;;;;;5112593;28;20903;-50
2023/01/27 00:57:33;;;;;;;22.23;21.23;;;18.70;45.90;;;;;;5112647;28;20465;-53
2023/01/27 01:00:00;;;;;;;22.57;21.23;;;18.70;45.90;;;;;;5112194;28;20481;-50
2023/01/27 01:02:26;;;;;;;22.00;20.90;;;18.70;45.90;;;;;;5111963;28;20552;-51
2023/01/27 01:04:53;;;;;;;22.10;21.00;;;18.70;46.00;;;;;;5112459;28;20437;-50
2023/01/27 01:07:21;;;;;;;22.20;21.10;;;18.70;46.00;;;;;;5111614;28;20465;-53
2023/01/27 01:09:48;;;;;;;22.27;21.37;;;18.60;45.90;;;;;;5103297;28;20435;-50
2023/01/27 01:12:15;;;;;;;21.60;20.80;;;18.60;45.90;;;;;;5091798;28;20533;-54
2023/01/27 01:14:42;;;;;;;22.00;21.00;;;18.60;45.90;;;;;;5091872;28;20531;-50
2023/01/27 01:17:08;;;;;;;21.80;20.80;;;18.60;46.00;;;;;;5091736;28;20466;-50
2023/01/27 01:19:35;;;;;;;21.90;20.90;;;18.60;46.00;;;;;;5093942;28;20442;-51
2023/01/27 01:22:02;;;;;;;21.90;21.00;;;18.60;46.00;;;;;;5112114;28;20441;-50
2023/01/27 01:24:30;;;;;;;22.53;21.60;;;18.60;46.00;;;;;;5112109;28;20445;-51
2023/01/27 01:26:57;;;;;;;21.73;20.77;;;18.50;46.00;;;;;;5112374;28;20556;-53
2023/01/27 01:29:25;;;;;;;21.27;20.43;;;18.50;46.10;;;;;;5107180;28;20534;-50
2023/01/27 01:31:51;;;;;;;21.97;20.97;;;18.50;46.10;;;;;;5091604;28;20450;-50
2023/01/27 01:34:18;;;;;;;21.50;20.53;;;18.50;46.10;;;;;;5091670;28;20446;-49
2023/01/27 01:36:45;;;;;;;21.13;20.27;;;18.50;46.10;;;;;;5091549;28;21066;-50
2023/01/27 01:39:12;;;;;;;21.57;20.57;;;18.40;46.10;;;;;;5092530;28;20456;-50
2023/01/27 01:41:40;;;;;;;21.77;20.77;;;18.40;46.10;;;;;;5091442;28;20482;-50
2023/01/27 01:44:28;;;;;;;22.07;21.07;;;18.40;46.20;;;;;;5091580;28;20448;-50
2023/01/27 01:46:55;;;;;;;22.00;21.10;;;18.40;46.20;;;;;;5085568;28;20475;-50
2023/01/27 01:49:26;;;;;;;21.40;20.60;;;18.40;46.20;;;;;;5094527;28;20439;-52
2023/01/27 01:51:55;;;;;;;21.90;21.00;;;18.40;46.20;;;;;;5111943;28;20960;-54
2023/01/27 01:54:25;;;;;;;21.73;20.93;;;18.40;46.20;;;;;;5111866;28;20437;-55
2023/01/27 01:57:00;;;;;;;21.23;20.33;;;18.30;46.20;;;;;;5111783;28;20465;-54
2023/01/27 01:59:32;;;;;;;21.13;20.23;;;18.30;46.30;;;;;;5107524;28;20434;-51
2023/01/27 02:02:03;;;;;;;21.40;20.50;;;18.30;46.30;;;;;;5091311;28;20486;-53
2023/01/27 02:04:34;;;;;;;21.20;20.40;;;18.30;46.30;;;;;;5091368;28;20539;-50
2023/01/27 02:07:06;;;;;;;21.17;20.27;;;18.30;46.30;;;;;;5091410;28;20462;-49
2023/01/27 02:09:33;;;;;;;22.27;21.17;;;18.30;46.40;;;;;;5095522;28;20445;-50
2023/01/27 02:12:01;;;;;;;21.43;20.63;;;18.20;46.30;;;;;;5111710;28;20528;-50
2023/01/27 02:14:28;;;;;;;21.13;20.30;;;18.20;46.40;;;;;;5111661;28;20448;-53
2023/01/27 02:16:56;;;;;;;21.70;20.60;;;18.20;46.40;;;;;;5111722;28;20549;-51
2023/01/27 02:19:30;;;;;;;21.17;20.23;;;18.20;46.40;;;;;;5096817;28;20450;-50
2023/01/27 02:22:00;;;;;;;21.57;20.67;;;18.20;46.40;;;;;;5095282;28;20481;-50
2023/01/27 02:24:35;;;;;;;21.97;21.17;;;18.20;46.50;;;;;;5097347;28;20809;-49
2023/01/27 02:27:03;;;;;;;21.97;21.00;;;18.20;46.40;;;;;;5094916;28;20469;-50
2023/01/27 02:29:30;;;;;;;21.37;20.47;;;18.20;46.50;;;;;;5094709;28;20445;-49
2023/01/27 02:31:57;;;;;;;22.00;21.10;;;18.20;46.50;;;;;;5094989;28;21003;-52
2023/01/27 02:34:31;;;;;;;21.40;20.50;;;18.10;47.00;;;;;;5098235;28;20528;-50
2023/01/27 02:37:02;;;;;;;21.80;20.80;;;18.20;46.50;;;;;;5115235;28;20455;-49
2023/01/27 02:39:35;;;;;;;21.73;20.83;;;18.10;46.50;;;;;;5114943;28;20447;-51
2023/01/27 02:42:05;;;;;;;21.63;20.73;;;18.10;46.50;;;;;;5115200;28;20946;-51
2023/01/27 02:44:32;;;;;;;21.47;20.57;;;18.10;46.50;;;;;;5095835;28;20457;-51
2023/01/27 02:46:59;;;;;;;21.83;20.93;;;18.10;46.50;;;;;;5094584;28;21106;-49
2023/01/27 02:49:26;;;;;;;21.67;20.67;;;18.10;46.50;;;;;;5095112;28;20533;-50
2023/01/27 02:51:53;;;;;;;21.53;20.73;;;18.10;46.50;;;;;;5094601;28;21022;-51
2023/01/27 02:54:19;;;;;;;21.97;20.97;;;18.10;46.60;;;;;;5113003;28;20541;-52
2023/01/27 02:56:46;;;;;;;21.60;20.70;;;18.10;46.60;;;;;;5095947;28;20462;-50
2023/01/27 02:59:14;;;;;;;21.50;20.60;;;18.00;46.50;;;;;;5094197;28;20447;-50
2023/01/27 03:01:41;;;;;;;21.60;20.80;;;18.00;46.50;;;;;;5113568;28;20822;-50
2023/01/27 03:04:10;;;;;;;21.50;20.60;;;18.00;46.60;;;;;;5114606;28;20449;-51
2023/01/27 03:06:37;;;;;;;21.17;20.37;;;18.00;46.60;;;;;;5114527;28;20523;-51
2023/01/27 03:09:04;;;;;;;22.00;20.97;;;18.00;46.60;;;;;;5114308;28;20824;-50
2023/01/27 03:14:17;;;;;;;22.20;21.30;;;18.00;46.60;;;;;;5094333;28;20456;-50
2023/01/27 03:19:27;;;;;;;21.80;20.80;;;17.90;46.60;;;;;;5113756;28;20470;-50
2023/01/27 03:21:55;;;;;;;22.53;21.40;;;17.90;46.60;;;;;;5094061;28;21086;-50
2023/01/27 03:24:22;;;;;;;21.87;21.07;;;18.00;46.70;;;;;;5093885;28;20450;-50
2023/01/27 03:26:49;;;;;;;22.37;21.43;;;17.90;46.60;;;;;;5093735;28;20468;-50
2023/01/27 03:32:01;;;;;;;22.23;21.43;;;17.90;46.60;;;;;;5093811;28;20418;-50
2023/01/27 03:34:28;;;;;;;22.57;21.67;;;17.90;46.60;;;;;;5093735;28;20976;-50
2023/01/27 03:47:54;;;;;;;21.87;21.07;;;17.80;46.60;;;;;;5114041;28;20598;-49
2023/01/27 03:50:36;;;;;;;22.10;21.20;;;17.80;46.70;;;;;;5106180;28;20442;-53
2023/01/27 03:53:03;;;;;;;22.53;21.53;;;17.80;46.70;;;;;;5093369;28;20446;-50
2023/01/27 03:55:30;;;;;;;22.53;21.63;;;17.80;46.70;;;;;;5093219;28;20449;-50
2023/01/27 03:58:04;;;;;;;22.47;21.57;;;17.80;46.70;;;;;;5093209;28;20469;-50
2023/01/27 04:00:32;;;;;;;21.90;21.00;;;17.80;46.70;;;;;;5100973;28;20484;-52
2023/01/27 04:08:28;;;;;;;22.00;21.20;;;17.70;46.70;;;;;;5113780;28;20495;-50
2023/01/27 04:13:42;;;;;;;22.00;21.20;;;17.70;46.70;;;;;;5092874;28;20427;-49
2023/01/27 04:16:11;;;;;;;22.30;21.40;;;17.70;46.60;;;;;;5092775;28;20454;-49
2023/01/27 04:18:37;;;;;;;21.83;21.03;;;17.70;46.70;;;;;;5111160;28;20442;-50
2023/01/27 04:21:05;;;;;;;22.30;21.43;;;17.70;46.70;;;;;;5112879;28;20485;-49
2023/01/27 04:23:31;;;;;;;22.43;21.53;;;17.70;46.70;;;;;;5113001;28;20810;-49
2023/01/27 04:25:59;;;;;;;22.77;21.97;;;17.70;46.70;;;;;;5112999;28;20500;-50
2023/01/27 04:28:26;;;;;;;22.87;21.97;;;17.70;46.60;;;;;;5109721;28;20449;-49
2023/01/27 04:30:52;;;;;;;22.90;22.00;;;17.70;46.60;;;;;;5112927;28;20494;-49
2023/01/27 04:33:21;;;;;;;22.67;21.77;;;17.70;46.60;;;;;;5112911;28;20448;-49
2023/01/27 04:35:50;;;;;;;22.93;21.93;;;17.70;46.70;;;;;;5113224;28;20934;-50
2023/01/27 04:38:16;;;;;;;22.70;21.80;;;17.70;46.70;;;;;;5097547;28;20462;-51
2023/01/27 04:40:43;;;;;;;22.00;21.20;;;17.60;46.60;;;;;;5092071;28;20486;-51
2023/01/27 04:43:10;;;;;;;22.23;21.43;;;17.60;46.60;;;;;;5091431;28;20449;-50
2023/01/27 04:45:37;;;;;;;22.37;21.47;;;17.60;46.60;;;;;;5092270;28;20888;-50
2023/01/27 04:48:05;;;;;;;22.67;21.77;;;17.60;46.60;;;;;;5104771;28;20463;-49
2023/01/27 04:50:33;;;;;;;23.23;22.23;;;17.60;46.60;;;;;;5112330;28;20453;-49
2023/01/27 04:53:00;;;;;;;22.27;21.37;;;17.60;46.60;;;;;;5112543;28;20532;-49
2023/01/27 04:55:27;;;;;;;23.07;22.13;;;17.60;46.60;;;;;;5101287;28;20439;-50
2023/01/27 04:57:54;;;;;;;22.10;21.30;;;17.60;46.60;;;;;;5092041;28;20549;-49
2023/01/27 05:00:21;;;;;;;23.73;22.73;;;17.60;46.60;;;;;;5091836;28;20464;-50
2023/01/27 05:02:48;;;;;;;24.40;23.40;;;17.60;46.60;;;;;;5095779;28;20476;-50
2023/01/27 05:05:15;;;;;;;23.73;22.83;;;17.60;46.60;;;;;;5112419;28;20479;-49
2023/01/27 05:07:43;;;;;;;23.40;22.60;;;17.60;46.60;;;;;;5112383;28;20467;-49
2023/01/27 05:10:11;;;;;;;24.10;23.10;;;17.60;46.80;;;;;;5112048;28;20808;-48
2023/01/27 05:12:37;;;;;;;24.20;23.30;;;17.60;46.70;;;;;;5109608;28;20437;-51
2023/01/27 05:15:05;;;;;;;24.67;23.67;;;17.70;47.00;;;;;;5091998;28;20449;-48
2023/01/27 05:17:34;;;;;;;24.10;23.10;;;17.70;47.10;;;;;;5109915;28;20461;-48
2023/01/27 05:20:01;;;;;;;24.20;23.30;;;17.70;47.40;;;;;;5112120;28;20813;-48
2023/01/27 05:22:28;;;;;;;26.00;25.00;;;17.80;47.60;;;;;;5111438;28;20838;-50
2023/01/27 05:24:56;;;;;;;25.70;24.70;;;17.80;47.70;;;;;;5091900;28;20449;-51
2023/01/27 05:27:23;;;;;;;24.87;23.97;;;17.90;48.30;;;;;;5091730;28;21034;-50
2023/01/27 05:29:50;;;;;;;24.93;24.03;;;18.00;47.90;;;;;;5091405;28;20533;-53
2023/01/27 05:32:22;;;;;;;25.10;24.10;;;18.00;47.90;;;;;;5091909;28;20478;-51
2023/01/27 05:34:49;;;;;;;23.80;22.83;;;18.00;47.80;;;;;;5091714;28;20943;-52
2023/01/27 05:37:16;;;;;;;24.43;23.43;;;18.10;47.80;;;;;;5091750;28;20544;-51
2023/01/27 05:39:42;;;;;;;24.63;23.63;;;18.10;47.70;;;;;;5091489;28;20542;-51
2023/01/27 05:42:11;;;;;;;25.70;24.70;;;18.20;47.80;;;;;;5091600;28;20479;-48
2023/01/27 05:44:37;;;;;;;25.00;24.00;;;18.20;47.70;;;;;;5109626;28;20524;-49
2023/01/27 05:47:05;;;;;;;25.77;24.67;;;18.30;47.70;;;;;;5111808;28;20552;-49
2023/01/27 05:49:33;;;;;;;23.43;22.43;;;18.30;47.60;;;;;;5111648;28;20441;-50
2023/01/27 05:51:59;;;;;;;25.27;24.27;;;18.30;47.60;;;;;;5111844;28;20822;-49
2023/01/27 05:54:26;;;;;;;24.73;23.73;;;18.40;47.60;;;;;;5113245;28;20441;-51
2023/01/27 05:56:53;;;;;;;24.93;23.87;;;18.40;47.50;;;;;;5115924;28;20465;-50
2023/01/27 05:59:21;;;;;;;24.03;23.13;;;18.50;47.50;;;;;;5115956;28;20884;-47
2023/01/27 06:01:48;;;;;;;24.47;23.37;;;18.50;47.40;;;;;;5115761;28;20481;-50
2023/01/27 06:04:15;;;;;;;25.00;24.00;;;18.50;47.30;;;;;;5115874;28;20846;-49
2023/01/27 06:06:42;;;;;;;26.10;25.10;;;18.60;47.30;;;;;;5115602;28;20461;-51
2023/01/27 06:09:10;;;;;;;23.80;22.80;;;18.60;47.30;;;;;;5115633;28;20873;-48
2023/01/27 06:11:37;;;;;;;24.50;23.50;;;18.60;47.00;;;;;;5115686;28;20529;-54
2023/01/27 06:14:03;;;;;;;25.00;23.60;;;18.60;47.00;;;;;;5103491;28;21007;-48
2023/01/27 06:16:31;;;;;;;24.43;23.43;;;18.60;47.10;;;;;;5095143;28;20546;-49
2023/01/27 06:18:58;;;;;;;24.73;23.63;;;18.70;47.20;;;;;;5095118;28;20868;-48
2023/01/27 06:21:25;;;;;;;24.67;23.67;;;18.70;47.20;;;;;;5094907;28;20474;-50
2023/01/27 06:23:52;;;;;;;25.40;24.40;;;18.70;47.10;;;;;;5095094;28;20446;-48
2023/01/27 06:26:20;;;;;;;25.60;24.60;;;18.80;47.00;;;;;;5094830;28;20466;-49
2023/01/27 06:28:47;;;;;;;25.00;24.00;;;18.80;47.00;;;;;;5094674;28;20533;-48
2023/01/27 06:31:16;;;;;;;25.47;24.37;;;18.80;47.00;;;;;;5096357;28;20806;-47
2023/01/27 06:33:45;;;;;;;25.13;24.13;;;18.80;46.80;;;;;;5115251;28;20448;-48
2023/01/27 06:36:13;;;;;;;25.53;24.43;;;18.90;46.90;;;;;;5115055;28;20461;-49
2023/01/27 06:38:40;;;;;;;25.27;24.17;;;18.90;46.80;;;;;;5115144;28;20826;-49
2023/01/27 06:41:07;;;;;;;25.30;24.10;;;18.90;46.80;;;;;;5114216;28;20823;-52
2023/01/27 06:43:35;;;;;;;25.83;24.73;;;19.00;47.30;;;;;;5094657;28;20445;-52
2023/01/27 06:46:02;;;;;;;25.10;24.10;;;19.20;47.80;;;;;;5094627;28;20443;-50
2023/01/27 06:48:28;;;;;;;25.00;24.00;;;19.20;47.20;;;;;;5094674;28;20450;-48
2023/01/27 06:50:57;;;;;;;23.70;22.80;;;19.30;46.70;;;;;;5094566;28;20453;-48
2023/01/27 06:53:24;;;;;;;26.47;25.37;;;19.40;46.70;;;;;;5113377;28;20442;-48
2023/01/27 06:55:56;;;;;;;25.60;24.60;;;19.60;46.70;;;;;;5114797;28;20467;-49
2023/01/27 06:58:22;;;;;;;24.90;23.90;;;19.70;46.50;;;;;;5114909;28;20453;-49
2023/01/27 07:00:49;;;;;;;25.37;24.37;;;19.80;46.30;;;;;;5114669;28;20452;-51
2023/01/27 07:03:16;;;;;;;26.43;25.43;;;19.90;46.20;;;;;;5112895;28;20480;-53
2023/01/27 07:05:43;;;;;;;25.65;24.60;;;20.00;46.20;;;;;;5113778;28;20437;-59
2023/01/27 07:08:12;;;;;;;25.67;24.67;;;20.10;46.10;;;;;;5114865;28;20223;-48
2023/01/27 07:10:39;;;;;;;24.43;23.53;;;20.30;47.40;;;;;;5102646;28;20533;-56
2023/01/27 07:13:06;;;;;;;24.50;23.60;;;20.40;46.30;;;;;;5096314;28;20474;-58
2023/01/27 07:15:33;;;;;;;26.13;25.13;;;20.40;45.90;;;;;;5096300;28;20446;-54
2023/01/27 07:18:00;;;;;;;25.53;24.53;;;20.50;45.80;;;;;;5095842;28;20501;-54
2023/01/27 07:20:27;;;;;;;24.43;23.53;;;20.60;45.60;;;;;;5105932;28;20877;-56
2023/01/27 07:22:57;;;;;;;26.73;25.63;;;20.60;45.50;;;;;;5114956;28;20477;-51
2023/01/27 07:25:26;;;;;;;24.83;23.73;;;20.70;45.70;;;;;;5115541;28;20787;-58
2023/01/27 07:27:53;;;;;;;24.87;23.87;;;20.80;45.80;;;;;;5111066;28;20462;-57
2023/01/27 07:30:20;;;;;;;24.70;23.70;;;20.70;45.20;;;;;;5093544;28;20443;-58
2023/01/27 07:32:49;;;;;;;24.40;23.40;;;20.60;44.90;;;;;;5093665;28;20534;-57
2023/01/27 07:35:16;;;;;;;25.80;24.73;;;20.60;44.90;;;;;;5093730;28;20868;-58
2023/01/27 07:37:42;;;;;;;25.60;24.60;;;20.60;44.80;;;;;;5094705;28;20469;-57
2023/01/27 07:40:12;;;;;;;25.20;24.20;;;20.60;44.80;;;;;;5093606;28;20446;-56
2023/01/27 07:42:40;;;;;;;25.80;24.80;;;20.60;44.70;;;;;;5093534;28;20478;-56
2023/01/27 07:45:08;;;;;;;26.70;25.60;;;20.70;44.70;;;;;;5093461;28;20537;-58
2023/01/27 07:47:35;;;;;;;26.40;25.40;;;20.70;44.60;;;;;;5093388;28;20566;-54
2023/01/27 07:50:02;;;;;;;26.27;24.97;;;20.70;44.70;;;;;;5092818;28;20532;-53
2023/01/27 07:52:28;;;;;;;26.87;25.30;;;20.80;46.20;;;;;;5092189;28;20439;-49
2023/01/27 07:54:55;;;;;;;24.77;23.77;;;20.80;46.70;;;;;;5092826;28;20450;-48
2023/01/27 07:57:22;;;;;;;25.87;24.67;;;20.90;45.70;;;;;;5093118;28;20494;-49
2023/01/27 07:59:54;;;;;;;25.23;23.93;;;20.90;45.40;;;;;;5092987;28;20537;-49
2023/01/27 08:02:20;;;;;;;25.30;23.90;;;20.90;45.30;;;;;;5092841;28;20525;-49
2023/01/27 08:04:48;;;;;;;25.30;24.20;;;20.90;45.20;;;;;;5093030;28;20446;-49
2023/01/27 08:07:16;;;;;;;24.80;23.67;;;21.00;45.30;;;;;;5093003;28;20815;-49
2023/01/27 08:09:43;;;;;;;25.20;24.10;;;21.00;45.30;;;;;;5092741;28;20966;-49
2023/01/27 08:12:09;;;;;;;24.80;23.80;;;21.10;45.30;;;;;;5092972;28;20446;-49
2023/01/27 08:14:36;;;;;;;24.93;23.73;;;21.10;45.20;;;;;;5093023;28;20448;-49
2023/01/27 08:17:04;;;;;;;25.70;24.50;;;21.10;45.20;;;;;;5092637;28;20463;-48
2023/01/27 08:19:31;;;;;;;24.20;23.20;;;21.10;45.10;;;;;;5092733;28;20474;-48
2023/01/27 08:21:58;;;;;;;25.67;24.67;;;21.10;45.00;;;;;;5092673;28;20735;-49
2023/01/27 08:24:25;;;;;;;25.43;24.23;;;21.10;45.60;;;;;;5092634;28;20533;-49
2023/01/27 08:26:51;;;;;;;26.50;25.50;;;21.10;45.00;;;;;;5092513;28;21042;-49
2023/01/27 08:29:18;;;;;;;23.77;22.70;;;21.10;45.00;;;;;;5092567;28;20454;-48
2023/01/27 08:31:45;;;;;;;25.03;24.03;;;21.10;45.50;;;;;;5092385;28;20536;-49
2023/01/27 08:34:13;;;;;;;27.10;25.90;;;21.20;45.00;;;;;;5092612;28;20448;-49
2023/01/27 08:36:42;;;;;;;24.47;23.47;;;21.20;45.00;;;;;;5092372;28;20488;-49
2023/01/27 08:39:09;;;;;;;24.63;23.60;;;21.20;44.90;;;;;;5092458;28;20450;-49
2023/01/27 08:41:36;;;;;;;23.63;22.53;;;21.20;44.90;;;;;;5092377;28;20443;-50
2023/01/27 08:44:03;;;;;;;24.33;23.23;;;21.20;44.80;;;;;;5092236;28;20577;-50
2023/01/27 08:46:30;;;;;;;26.23;25.03;;;21.20;44.70;;;;;;5092314;28;20464;-49
2023/01/27 08:48:56;;;;;;;25.33;24.13;;;21.20;44.70;;;;;;5092155;28;20869;-48
2023/01/27 08:51:24;;;;;;;24.23;23.23;;;21.20;44.70;;;;;;5092098;28;20535;-49
2023/01/27 08:53:51;;;;;;;25.00;24.00;;;21.20;44.60;;;;;;5092308;28;20544;-49
2023/01/27 08:56:18;;;;;;;25.07;24.00;;;21.30;44.70;;;;;;5092234;28;20897;-48
2023/01/27 08:58:47;;;;;;;25.17;24.03;;;21.30;44.70;;;;;;5092288;28;20537;-50
2023/01/27 09:01:14;;;;;;;24.80;23.70;;;21.30;44.60;;;;;;5092039;28;20457;-50
2023/01/27 09:03:41;;;;;;;24.10;23.10;;;21.40;44.70;;;;;;5091844;28;20489;-49
2023/01/27 09:06:09;;;;;;;24.30;23.27;;;21.40;44.60;;;;;;5091906;28;21043;-49
2023/01/27 09:08:38;;;;;;;25.87;24.60;;;21.40;44.60;;;;;;5092001;28;20898;-49
2023/01/27 09:11:09;;;;;;;24.23;23.00;;;21.40;44.50;;;;;;5091701;28;20457;-48
2023/01/27 09:13:36;;;;;;;24.33;23.23;;;21.40;44.50;;;;;;5091913;28;20810;-49
2023/01/27 09:16:03;;;;;;;24.43;23.40;;;21.50;44.50;;;;;;5091811;28;20529;-50
2023/01/27 09:18:30;;;;;;;24.33;23.33;;;21.50;44.50;;;;;;5091985;28;20442;-49
2023/01/27 09:20:57;;;;;;;24.73;23.73;;;21.50;44.50;;;;;;5091602;28;20533;-49
2023/01/27 09:23:24;;;;;;;25.00;23.90;;;21.50;44.40;;;;;;5091722;28;21074;-49
2023/01/27 09:25:52;;;;;;;25.33;24.13;;;21.60;44.40;;;;;;5091640;28;20537;-49
2023/01/27 09:28:19;;;;;;;25.73;24.70;;;21.50;44.30;;;;;;5091326;28;20533;-49
2023/01/27 09:30:46;;;;;;;24.30;23.30;;;21.50;44.30;;;;;;5091495;28;20516;-50
2023/01/27 09:33:13;;;;;;;24.70;23.70;;;21.60;44.30;;;;;;5091822;28;20525;-49
2023/01/27 09:35:45;;;;;;;25.50;24.50;;;21.60;44.30;;;;;;5091666;28;20898;-50
2023/01/27 09:38:15;;;;;;;25.40;24.40;;;21.60;44.20;;;;;;5091685;28;20469;-49
2023/01/27 09:40:56;;;;;;;26.10;24.83;;;21.70;44.30;;;;;;5091429;28;20439;-49
2023/01/27 09:43:47;;;;;;;25.07;24.07;;;21.70;44.20;;;;;;5091438;28;20488;-49
2023/01/27 09:46:30;;;;;;;25.17;24.10;;;21.70;44.20;;;;;;5091534;28;20896;-49
2023/01/27 09:49:18;;;;;;;24.80;23.80;;;21.70;44.10;;;;;;5091512;28;20446;-49
2023/01/27 09:51:57;;;;;;;24.37;23.37;;;21.70;44.00;;;;;;5091610;28;20511;-49
2023/01/27 09:54:51;;;;;;;24.93;23.93;;;21.80;44.10;;;;;;5091528;28;20446;-49
2023/01/27 09:57:30;;;;;;;24.60;23.60;;;21.70;44.00;;;;;;5091450;28;20857;-49
2023/01/27 10:00:15;;;;;;;24.97;24.07;;;21.80;44.00;;;;;;5091397;28;20448;-48
2023/01/27 10:03:00;;;;;;;24.97;23.97;;;21.80;44.00;;;;;;5091453;28;20535;-49
2023/01/27 10:05:40;;;;;;;25.00;24.00;;;21.80;44.00;;;;;;5091488;28;20928;-49
2023/01/27 10:08:26;;;;;;;25.67;24.57;;;21.90;44.00;;;;;;5091465;28;20473;-49
2023/01/27 10:11:08;;;;;;;24.67;23.57;;;21.90;43.90;;;;;;5091193;28;20442;-49
2023/01/27 10:13:47;;;;;;;23.70;22.80;;;21.90;43.80;;;;;;5091526;28;20453;-49
2023/01/27 10:16:30;;;;;;;25.20;24.20;;;21.90;43.80;;;;;;5091152;28;20476;-49
2023/01/27 10:19:12;;;;;;;24.10;23.10;;;21.90;43.70;;;;;;5091112;28;20442;-48
2023/01/27 10:21:48;;;;;;;24.00;23.00;;;21.90;43.80;;;;;;5091309;28;20521;-51
2023/01/27 10:24:28;;;;;;;25.33;24.33;;;21.90;43.70;;;;;;5091119;28;20478;-49
2023/01/27 10:27:00;;;;;;;24.47;23.47;;;22.00;43.80;;;;;;5091241;28;20462;-50
2023/01/27 10:29:33;;;;;;;24.80;23.80;;;22.00;43.70;;;;;;5091162;28;20472;-48
2023/01/27 10:32:07;;;;;;;24.40;23.40;;;22.00;43.70;;;;;;5091202;28;20442;-49
2023/01/27 10:34:36;;;;;;;24.13;23.13;;;22.00;43.60;;;;;;5091263;28;20441;-48
2023/01/27 10:37:23;;;;;;;24.00;23.00;;;22.00;43.50;;;;;;5090927;28;20549;-48
2023/01/27 10:39:58;;;;;;;24.40;23.27;;;22.00;43.50;;;;;;5091155;28;20448;-51
2023/01/27 10:42:31;;;;;;;25.07;23.90;;;22.10;43.60;;;;;;5094693;28;20464;-48
2023/01/27 10:45:13;;;;;;;25.13;24.03;;;22.10;43.60;;;;;;5094640;28;20810;-48
2023/01/27 10:48:05;;;;;;;24.23;23.23;;;22.10;43.50;;;;;;5094504;28;20968;-50
2023/01/27 10:50:38;;;;;;;25.00;24.00;;;22.20;43.60;;;;;;5094422;28;20708;-50
2023/01/27 10:53:10;;;;;;;25.00;24.00;;;22.20;43.50;;;;;;5094454;28;20443;-48
2023/01/27 10:55:41;;;;;;;24.17;23.17;;;22.20;43.40;;;;;;5094502;28;20446;-49
2023/01/27 10:58:19;;;;;;;23.80;22.80;;;22.20;43.40;;;;;;5094288;28;20520;-49
2023/01/27 11:00:51;;;;;;;24.77;23.77;;;22.20;43.40;;;;;;5094051;28;20442;-50
2023/01/27 11:03:23;;;;;;;24.10;23.10;;;22.20;43.40;;;;;;5094184;28;20486;-51
2023/01/27 11:05:53;;;;;;;24.13;23.13;;;22.20;43.40;;;;;;5094157;28;20509;-48
2023/01/27 11:08:30;;;;;;;24.53;23.53;;;22.30;43.50;;;;;;5094221;28;20447;-48
2023/01/27 11:13:46;;;;;;;23.90;22.90;;;22.30;43.30;;;;;;5094187;28;20418;-49
2023/01/27 11:16:16;;;;;;;24.40;23.40;;;22.30;43.30;;;;;;5096474;22;20579;-48
2023/01/27 11:18:45;;;;;;;23.87;22.93;;;22.30;43.20;;;;;;5065383;28;20442;-51
2023/01/27 11:21:18;;;;;;;23.90;22.90;;;22.30;43.20;;;;;;5073631;28;20483;-48
2023/01/27 11:23:50;;;;;;;24.43;23.43;;;22.30;43.20;;;;;;5073733;28;20483;-48
2023/01/27 11:26:27;;;;;;;24.70;23.70;;;22.40;43.30;;;;;;5073629;28;20509;-50
2023/01/27 11:29:04;;;;;;;24.80;23.80;;;22.40;43.20;;;;;;5073602;28;20518;-50
2023/01/27 11:31:39;;;;;;;23.40;22.40;;;22.40;43.20;;;;;;5073602;28;20449;-49
2023/01/27 11:34:11;;;;;;;24.40;23.40;;;22.40;43.10;;;;;;5073442;28;20525;-49
2023/01/27 11:36:38;;;;;;;24.57;23.57;;;22.50;43.20;;;;;;5073372;28;20467;-49
2023/01/27 11:39:06;;;;;;;24.43;23.43;;;22.50;43.10;;;;;;5073110;28;20984;-49
2023/01/27 11:41:36;;;;;;;24.03;23.03;;;22.50;43.10;;;;;;5073404;28;20439;-49
2023/01/27 11:44:08;;;;;;;24.57;23.57;;;22.50;43.10;;;;;;5073237;28;20868;-51
2023/01/27 11:46:36;;;;;;;24.80;23.73;;;22.50;43.10;;;;;;5073182;28;20466;-49
2023/01/27 11:49:05;;;;;;;24.20;23.20;;;22.60;43.20;;;;;;5073073;28;20447;-49
2023/01/27 11:51:37;;;;;;;23.80;22.90;;;22.50;43.10;;;;;;5072961;28;20439;-49
2023/01/27 11:54:12;;;;;;;24.50;23.50;;;22.60;43.10;;;;;;5073205;28;20808;-49
2023/01/27 11:56:40;;;;;;;23.80;22.90;;;22.60;43.10;;;;;;5072952;28;20475;-49
2023/01/27 11:59:13;;;;;;;24.50;23.50;;;22.60;43.00;;;;;;5072890;28;20443;-49
2023/01/27 12:01:46;;;;;;;24.30;23.30;;;22.60;43.00;;;;;;5072915;28;20451;-48
2023/01/27 12:04:18;;;;;;;24.27;23.27;;;22.60;43.00;;;;;;5072778;28;20515;-49
2023/01/27 12:06:48;;;;;;;23.50;22.53;;;22.70;43.10;;;;;;5072831;28;20464;-49
2023/01/27 12:09:33;;;;;;;24.50;23.50;;;22.70;43.10;;;;;;5072670;28;20925;-49
2023/01/27 12:12:20;;;;;;;24.50;23.50;;;22.60;42.90;;;;;;5072675;28;20453;-50
2023/01/27 12:14:49;;;;;;;24.77;23.77;;;22.70;42.90;;;;;;5072698;28;20447;-48
2023/01/27 12:17:24;;;;;;;24.37;23.40;;;22.70;43.00;;;;;;5072358;28;20506;-49
2023/01/27 12:19:53;;;;;;;24.53;23.60;;;22.70;42.90;;;;;;5072593;28;20447;-51
2023/01/27 12:22:26;;;;;;;24.70;23.70;;;22.70;43.00;;;;;;5072653;28;20447;-49
2023/01/27 12:24:57;;;;;;;25.00;24.00;;;22.70;42.90;;;;;;5072681;28;20483;-49
2023/01/27 12:27:28;;;;;;;25.03;24.03;;;22.70;42.90;;;;;;5072373;28;20467;-49
2023/01/27 12:29:57;;;;;;;24.43;23.43;;;22.70;42.90;;;;;;5072226;28;20451;-50
2023/01/27 12:32:37;;;;;;;23.93;22.93;;;22.70;42.90;;;;;;5072355;28;20933;-49
2023/01/27 12:35:05;;;;;;;24.67;23.67;;;22.70;42.90;;;;;;5072306;28;20479;-49
2023/01/27 12:37:36;;;;;;;24.43;23.43;;;22.80;43.40;;;;;;5072282;28;20465;-49
2023/01/27 12:40:04;;;;;;;24.50;23.50;;;22.80;42.90;;;;;;5072097;28;20454;-49
2023/01/27 12:42:40;;;;;;;23.80;22.80;;;22.80;42.80;;;;;;5072045;28;20454;-49
2023/01/27 12:45:22;;;;;;;24.07;23.07;;;22.80;42.80;;;;;;5071896;28;20505;-50
2023/01/27 12:48:02;;;;;;;24.50;23.50;;;22.80;42.80;;;;;;5072039;28;20817;-49
2023/01/27 12:50:31;;;;;;;24.17;23.17;;;22.80;42.80;;;;;;5071935;28;20796;-49
2023/01/27 12:53:09;;;;;;;24.70;23.70;;;22.80;42.80;;;;;;5072277;28;20453;-49
2023/01/27 12:55:40;;;;;;;25.00;24.00;;;22.80;42.80;;;;;;5072277;28;20447;-49
2023/01/27 12:58:31;;;;;;;24.90;23.90;;;22.80;42.70;;;;;;5072013;28;20892;-49
2023/01/27 13:01:00;;;;;;;24.57;23.57;;;22.90;42.80;;;;;;5071828;28;20481;-50
2023/01/27 13:03:29;;;;;;;25.97;24.87;;;22.80;42.70;;;;;;5071000;28;20475;-49
2023/01/27 13:05:58;;;;;;;24.77;23.77;;;22.80;42.70;;;;;;5072040;28;20443;-48
2023/01/27 13:08:27;;;;;;;23.97;23.07;;;22.90;42.80;;;;;;5071844;28;20447;-48
2023/01/27 13:10:58;;;;;;;24.77;23.77;;;22.90;42.70;;;;;;5071669;28;20530;-49
2023/01/27 13:13:27;;;;;;;25.63;24.63;;;22.90;42.70;;;;;;5071975;28;20435;-49
2023/01/27 13:15:57;;;;;;;25.33;24.33;;;22.90;42.70;;;;;;5071684;28;20454;-49
2023/01/27 13:18:24;;;;;;;24.50;23.50;;;22.90;42.70;;;;;;5071974;28;20448;-49
2023/01/27 13:20:56;;;;;;;25.70;24.60;;;22.90;42.70;;;;;;5071498;28;20447;-49
2023/01/27 13:23:26;;;;;;;25.50;24.23;;;22.90;42.70;;;;;;5071640;28;20441;-50